Shady Dale, Georgia
Current Conditions -  °F | °C
As of 7:35 PM on Wednesday 22 Oct 2014 (Local Time) from KCVC Reporting Station
Clear Clear  
Wind Chill: 55°   Ceiling: Unl
Heat Index: 55°   Visibility: 10mi
Dew Point: 46°   Wind: 0mph
Humidity: 72%   Direction: NA
Pressure: 30.06"   Gusts: NA
Location:  33.4°N, 83.59°W
Report Text: KCVC 222335Z AUTO 00000KT 10SM CLR 13/08 A3006 RMK AO2
Loading
Personal Weather Stations






























Interactive Weather Map
Tropical Storm Tracking
New forecast layout! Learn more

10-Day Weather Forecast

Advertisements
Track Severe Weather on mobile